San Pedro, Argentina
Current Conditions -  °F | °C
As of 2:00 PM on Thursday 23 Oct 2014 (Local Time) from SASJ Reporting Station
Scattered Clouds Scattered Clouds  
Wind Chill: 29°   Ceiling: Unl
Heat Index: 30°   Visibility: 6mi
Dew Point: 18°   Wind: 6mph
Humidity: 51%   Direction: 140°SE
Pressure: 29.97"   Gusts: NA
Location:  24.22°S, 64.87°W
Report Text: SASJ 231700Z 14005KT 9999 SCT020 SCT035TCUSCT200 29/18 Q1015
Loading
Personal Weather Stations






























Interactive Weather Map
Tropical Storm Tracking
New forecast layout! Learn more

10-Day Weather Forecast

Advertisements
Track Severe Weather on mobile